White Bird, Idaho
Current Conditions -  °F | °C
As of 6:55 PM on Sunday 23 Nov 2014 (Local Time) from KGIC Reporting Station
Scattered Clouds Scattered Clouds  
Wind Chill: 25°   Ceiling: Unl
Heat Index: 35°   Visibility: 10mi
Dew Point: 32°   Wind: 16mph
Humidity: 89%   Direction: 240°WSW
Pressure: 30.13"   Gusts: 24mph
Location:  45.76°N, 116.3°W
Report Text: KGIC 240255Z AUTO 24014G21KT 10SM SCT016 SCT120 02/00 A3013 RMK AO1 P0002 60004 T00161001
Loading
Personal Weather Stations






























Interactive Weather Map New forecast layout! Learn more

10-Day Weather Forecast

Advertisements
Track Severe Weather on mobile